createdAt,value
2022-08-05T00:00:54.499Z,3.83
2022-08-05T00:03:21.841Z,3.30
2022-08-05T00:06:05.672Z,10.60
2022-08-05T00:08:36.431Z,4.37
2022-08-05T00:11:20.794Z,3.23
2022-08-05T00:13:53.536Z,2.67
2022-08-05T00:16:35.548Z,5.00
2022-08-05T00:19:04.150Z,3.00
2022-08-05T00:21:31.301Z,7.37
2022-08-05T00:24:10.741Z,3.63
2022-08-05T00:26:38.576Z,4.50
2022-08-05T00:29:05.556Z,4.60
2022-08-05T00:31:54.419Z,7.53
2022-08-05T00:34:55.133Z,2.20
2022-08-05T00:37:13.074Z,3.10
2022-08-05T00:39:57.376Z,2.03
2022-08-05T00:42:40.105Z,3.40
2022-08-05T00:45:11.735Z,2.47
2022-08-05T00:47:56.886Z,6.73
2022-08-05T00:50:25.442Z,2.53
2022-08-05T00:52:54.944Z,8.43
2022-08-05T00:55:22.596Z,3.53
2022-08-05T00:57:58.655Z,4.00
2022-08-05T01:00:28.083Z,5.27
2022-08-05T01:02:56.763Z,7.10
2022-08-05T01:05:24.724Z,8.83
2022-08-05T01:08:41.334Z,6.07
2022-08-05T01:10:52.901Z,7.53
2022-08-05T01:14:08.440Z,5.87
2022-08-05T01:17:03.283Z,5.30
2022-08-05T01:20:05.697Z,4.40
2022-08-05T01:23:14.902Z,7.10
2022-08-05T01:26:21.466Z,2.70
2022-08-05T01:29:24.087Z,3.80
2022-08-05T01:31:59.086Z,4.10
2022-08-05T01:34:32.987Z,9.73
2022-08-05T01:37:25.467Z,7.03
2022-08-05T01:39:58.626Z,9.73
2022-08-05T01:42:27.895Z,9.73
2022-08-05T01:44:59.131Z,11.50
2022-08-05T01:47:38.863Z,4.87
2022-08-05T01:50:15.675Z,4.70
2022-08-05T01:52:50.078Z,10.50
2022-08-05T01:55:19.267Z,6.73
2022-08-05T01:58:29.804Z,17.00
2022-08-05T02:00:39.641Z,4.30
2022-08-05T02:03:31.983Z,6.20
2022-08-05T02:06:03.578Z,6.93
2022-08-05T02:08:58.340Z,4.33
2022-08-05T02:11:33.382Z,6.27
2022-08-05T02:14:12.452Z,8.90
2022-08-05T02:16:52.877Z,8.43
2022-08-05T02:19:34.547Z,4.47
2022-08-05T02:22:26.503Z,7.30
2022-08-05T02:25:02.501Z,10.23
2022-08-05T02:27:59.349Z,3.50
2022-08-05T02:30:19.871Z,4.33
2022-08-05T02:32:51.234Z,13.40
2022-08-05T02:35:27.792Z,5.33
2022-08-05T02:37:56.747Z,6.20
2022-08-05T02:40:27.780Z,6.33
2022-08-05T02:42:56.452Z,4.90
2022-08-05T02:45:25.540Z,5.03
2022-08-05T02:48:06.942Z,6.33
2022-08-05T02:50:43.919Z,7.30
2022-08-05T02:53:18.991Z,9.30
2022-08-05T02:55:59.609Z,8.57
2022-08-05T02:58:28.425Z,12.03
2022-08-05T03:00:59.229Z,9.30
2022-08-05T03:03:28.212Z,8.93
2022-08-05T03:06:54.729Z,5.40
2022-08-05T03:08:52.187Z,6.73
2022-08-05T03:11:55.115Z,10.10
2022-08-05T03:14:13.867Z,6.33
2022-08-05T03:16:41.814Z,7.10
2022-08-05T03:19:12.858Z,10.33
2022-08-05T03:21:49.507Z,7.30
2022-08-05T03:24:26.843Z,8.57
2022-08-05T03:26:58.295Z,14.47
2022-08-05T03:29:45.486Z,14.00
2022-08-05T03:32:14.274Z,8.80
2022-08-05T03:34:51.259Z,7.63
2022-08-05T03:37:19.832Z,14.93
2022-08-05T03:39:59.145Z,8.07
2022-08-05T03:42:29.200Z,12.70
2022-08-05T03:44:59.139Z,9.10
2022-08-05T03:47:30.423Z,15.23
2022-08-05T03:49:57.953Z,11.83
2022-08-05T03:52:48.516Z,13.07
2022-08-05T03:56:09.904Z,17.30
2022-08-05T03:58:16.399Z,14.10
2022-08-05T04:00:46.492Z,16.20
2022-08-05T04:03:28.403Z,16.30
2022-08-05T04:05:57.722Z,23.13
2022-08-05T04:08:34.599Z,26.33
2022-08-05T04:11:08.443Z,20.97
2022-08-05T04:13:49.745Z,14.90
2022-08-05T04:16:24.060Z,13.63
2022-08-05T04:18:54.210Z,10.53
2022-08-05T04:22:04.957Z,11.60
2022-08-05T04:24:18.814Z,14.73
2022-08-05T04:26:49.881Z,21.43
2022-08-05T04:29:17.151Z,20.90
2022-08-05T04:31:44.131Z,20.60
2022-08-05T04:34:31.401Z,15.17
2022-08-05T04:37:00.824Z,14.30
2022-08-05T04:39:30.191Z,14.70
2022-08-05T04:41:57.118Z,21.00
2022-08-05T04:44:29.400Z,14.07
2022-08-05T04:46:58.909Z,18.90
2022-08-05T04:49:38.894Z,14.20
2022-08-05T04:52:13.887Z,15.87
2022-08-05T04:54:42.289Z,20.83
2022-08-05T04:57:09.238Z,16.57
2022-08-05T04:59:38.583Z,26.83
2022-08-05T05:02:36.979Z,21.93
2022-08-05T05:05:02.780Z,18.83
2022-08-05T05:07:32.435Z,21.73
2022-08-05T05:10:02.318Z,22.50
2022-08-05T05:12:30.059Z,14.30
2022-08-05T05:14:56.915Z,20.03
2022-08-05T05:17:55.387Z,19.57
2022-08-05T05:20:12.575Z,15.90
2022-08-05T05:22:41.002Z,17.20
2022-08-05T05:25:16.586Z,16.03
2022-08-05T05:27:48.606Z,19.23
2022-08-05T05:30:31.107Z,17.23
2022-08-05T05:33:09.042Z,16.47
2022-08-05T05:35:47.710Z,16.63
2022-08-05T05:38:22.548Z,15.90
2022-08-05T05:40:57.332Z,23.50
2022-08-05T05:43:54.442Z,22.97
2022-08-05T05:46:17.231Z,34.87
2022-08-05T05:48:47.893Z,24.80
2022-08-05T05:51:27.703Z,25.53
2022-08-05T05:53:59.579Z,24.77
2022-08-05T05:56:34.723Z,29.50
2022-08-05T05:59:05.423Z,20.40
2022-08-05T06:01:39.412Z,18.30
2022-08-05T06:04:14.512Z,15.10
2022-08-05T06:06:47.722Z,17.40
2022-08-05T06:09:17.585Z,17.63
2022-08-05T06:12:01.054Z,15.67
2022-08-05T06:14:34.624Z,20.17
2022-08-05T06:17:22.573Z,20.93
2022-08-05T06:19:56.775Z,30.33
2022-08-05T06:22:29.763Z,19.43
2022-08-05T06:24:57.215Z,19.27
2022-08-05T06:28:10.432Z,22.87
2022-08-05T06:30:20.033Z,23.67
2022-08-05T06:32:48.566Z,28.60
2022-08-05T06:36:03.116Z,28.13
2022-08-05T06:38:09.999Z,23.13
2022-08-05T06:40:42.064Z,23.60
2022-08-05T06:43:58.799Z,23.47
2022-08-05T06:46:06.716Z,25.10
2022-08-05T06:48:54.760Z,24.83
2022-08-05T06:51:29.275Z,21.40
2022-08-05T06:54:02.428Z,24.13
2022-08-05T06:56:30.394Z,25.43
2022-08-05T06:59:01.830Z,26.83
2022-08-05T07:01:32.355Z,28.20
2022-08-05T07:04:01.477Z,41.27
2022-08-05T07:06:29.484Z,25.47
2022-08-05T07:08:56.646Z,32.23
2022-08-05T07:11:28.695Z,23.83
2022-08-05T07:14:19.992Z,28.03
2022-08-05T07:18:08.177Z,32.27
2022-08-05T07:22:27.783Z,30.57
2022-08-05T07:25:23.655Z,31.57
2022-08-05T07:27:57.134Z,29.70
2022-08-05T07:30:32.438Z,25.53
2022-08-05T07:33:05.536Z,26.37
2022-08-05T07:36:03.791Z,31.93
2022-08-05T07:38:33.824Z,27.53
2022-08-05T07:42:07.408Z,30.47
2022-08-05T07:43:56.064Z,38.47
2022-08-05T07:46:28.945Z,31.87
2022-08-05T07:49:01.956Z,26.53
2022-08-05T07:51:36.382Z,33.53
2022-08-05T07:54:08.531Z,40.10
2022-08-05T07:57:01.344Z,22.40
2022-08-05T07:59:38.052Z,27.37
2022-08-05T08:02:10.651Z,32.30
2022-08-05T08:04:44.767Z,19.73
2022-08-05T08:07:12.687Z,29.03
2022-08-05T08:09:39.589Z,27.83
2022-08-05T08:12:17.177Z,22.60
2022-08-05T08:14:53.567Z,34.37
2022-08-05T08:17:22.075Z,19.07
2022-08-05T08:20:42.950Z,22.93
2022-08-05T08:22:37.844Z,23.00
2022-08-05T08:25:15.688Z,24.43
2022-08-05T08:27:47.342Z,16.40
2022-08-05T08:30:28.479Z,9.50
2022-08-05T08:33:04.528Z,9.87
2022-08-05T08:35:41.353Z,7.73
2022-08-05T08:38:11.642Z,10.60
2022-08-05T08:40:50.436Z,8.10
2022-08-05T08:44:57.872Z,18.63
2022-08-05T08:46:09.835Z,14.53
2022-08-05T08:49:03.365Z,12.43
2022-08-05T08:52:03.433Z,10.30
2022-08-05T08:54:17.593Z,6.53
2022-08-05T08:56:47.718Z,6.23
2022-08-05T08:59:20.960Z,6.40
2022-08-05T09:01:57.282Z,11.27
2022-08-05T09:04:30.723Z,6.70
2022-08-05T09:06:58.307Z,9.40
2022-08-05T09:09:34.547Z,10.33
2022-08-05T09:12:20.076Z,9.50
2022-08-05T09:14:58.276Z,16.07
2022-08-05T09:17:42.952Z,8.43
2022-08-05T09:20:36.243Z,12.50
2022-08-05T09:23:19.710Z,13.90
2022-08-05T09:26:01.560Z,12.70
2022-08-05T09:28:33.435Z,14.90
2022-08-05T09:31:22.299Z,16.50
2022-08-05T09:34:12.416Z,11.27
2022-08-05T09:36:56.173Z,12.50
2022-08-05T09:39:41.990Z,9.43
2022-08-05T09:42:23.622Z,12.07
2022-08-05T09:44:56.145Z,13.00
2022-08-05T09:47:26.104Z,12.73
2022-08-05T09:50:02.019Z,8.63
2022-08-05T09:52:34.832Z,10.73
2022-08-05T09:55:57.052Z,5.40
2022-08-05T09:57:59.964Z,10.47
2022-08-05T10:00:27.659Z,11.80
2022-08-05T10:02:58.446Z,5.60
2022-08-05T10:05:28.449Z,10.13
2022-08-05T10:08:35.171Z,7.67
2022-08-05T10:10:50.339Z,11.07
2022-08-05T10:13:45.841Z,7.00
2022-08-05T10:16:52.918Z,7.60
2022-08-05T10:19:23.633Z,5.57
2022-08-05T10:21:59.251Z,6.57
2022-08-05T10:24:27.377Z,6.93
2022-08-05T10:26:56.765Z,7.03
2022-08-05T10:31:20.356Z,6.17
2022-08-05T10:32:54.348Z,4.60
2022-08-05T10:35:04.618Z,4.13
2022-08-05T10:37:40.084Z,3.87
2022-08-05T10:41:07.107Z,4.47
2022-08-05T10:44:02.877Z,10.93
2022-08-05T10:47:26.830Z,7.03
2022-08-05T10:50:33.009Z,8.73
2022-08-05T10:53:01.641Z,3.57
2022-08-05T10:55:32.929Z,4.33
2022-08-05T10:58:11.492Z,9.50
2022-08-05T11:00:42.270Z,4.83
2022-08-05T11:03:24.968Z,4.63
2022-08-05T11:06:15.284Z,5.77
2022-08-05T11:09:17.383Z,4.83
2022-08-05T11:11:52.391Z,4.87
2022-08-05T11:14:57.375Z,18.13
2022-08-05T11:17:59.101Z,5.20
2022-08-05T11:20:41.695Z,33.73
2022-08-05T11:24:04.750Z,33.03
2022-08-05T11:26:43.225Z,34.07
2022-08-05T11:29:42.795Z,5.93
2022-08-05T11:32:30.000Z,9.63
2022-08-05T11:34:58.025Z,10.97
2022-08-05T11:38:29.465Z,11.17
2022-08-05T11:41:35.289Z,7.33
2022-08-05T11:44:40.762Z,5.60
2022-08-05T11:47:13.956Z,4.70
2022-08-05T11:49:49.836Z,4.23
2022-08-05T11:52:29.005Z,5.67
2022-08-05T11:54:59.015Z,3.83
2022-08-05T11:58:08.639Z,6.83
2022-08-05T12:00:31.402Z,3.40
2022-08-05T12:02:58.556Z,2.47
2022-08-05T12:05:36.393Z,36.50
2022-08-05T12:08:11.763Z,10.67
2022-08-05T12:10:46.521Z,6.60
2022-08-05T12:13:47.456Z,36.50
2022-08-05T12:16:14.180Z,2.27
2022-08-05T12:18:42.623Z,5.40
2022-08-05T12:21:19.208Z,2.50
2022-08-05T12:24:09.709Z,2.23
2022-08-05T12:26:56.957Z,2.03
2022-08-05T12:29:26.519Z,2.83
2022-08-05T12:32:02.103Z,1.90
2022-08-05T12:34:34.059Z,10.43
2022-08-05T12:37:17.049Z,8.33
2022-08-05T12:39:48.758Z,1.67
2022-08-05T12:42:19.746Z,1.83
2022-08-05T12:44:47.521Z,2.50
2022-08-05T12:47:26.809Z,2.50
2022-08-05T12:50:04.036Z,71.93
2022-08-05T12:52:41.991Z,10.77
2022-08-05T12:55:25.402Z,1.63
2022-08-05T12:58:50.262Z,1.83
2022-08-05T13:02:01.593Z,3.73
2022-08-05T13:03:41.525Z,1.80
2022-08-05T13:06:13.202Z,52.57
2022-08-05T13:08:40.301Z,6.93
2022-08-05T13:11:08.028Z,3.07
2022-08-05T13:14:06.216Z,1.87
2022-08-05T13:16:27.924Z,6.43
2022-08-05T13:18:57.919Z,2.03
2022-08-05T13:21:27.754Z,4.87
2022-08-05T13:23:54.989Z,4.07
2022-08-05T13:26:29.815Z,1.73
2022-08-05T13:28:57.573Z,1.90
2022-08-05T13:31:33.992Z,10.93
2022-08-05T13:34:22.983Z,8.33
2022-08-05T13:36:53.349Z,2.00
2022-08-05T13:40:13.591Z,1.87
2022-08-05T13:42:07.960Z,2.70
2022-08-05T13:44:45.333Z,4.80
2022-08-05T13:47:35.479Z,2.47
2022-08-05T13:50:04.486Z,82.00
2022-08-05T13:52:35.232Z,119.33
2022-08-05T13:55:07.502Z,30.07
2022-08-05T13:57:49.781Z,3.33
2022-08-05T14:00:27.001Z,3.83
2022-08-05T14:03:01.149Z,5.50
2022-08-05T14:05:29.266Z,3.10
2022-08-05T14:08:03.004Z,2.73
2022-08-05T14:10:35.486Z,2.07
2022-08-05T14:13:06.126Z,1.60
2022-08-05T14:16:07.597Z,1.37
2022-08-05T14:18:23.236Z,3.90
2022-08-05T14:20:54.534Z,4.83
2022-08-05T14:23:25.680Z,1.70
2022-08-05T14:25:58.880Z,3.83
2022-08-05T14:28:28.444Z,1.60
2022-08-05T14:30:56.788Z,3.97
2022-08-05T14:33:24.156Z,3.33
2022-08-05T14:35:54.048Z,1.20
2022-08-05T14:38:31.713Z,1.97
2022-08-05T14:41:06.966Z,0.90
2022-08-05T14:44:00.169Z,3.03
2022-08-05T14:46:28.812Z,1.70
2022-08-05T14:48:59.505Z,2.47
2022-08-05T14:51:31.220Z,6.90
2022-08-05T14:54:28.753Z,3.10
2022-08-05T14:56:47.382Z,1.63
2022-08-05T14:59:15.283Z,1.73
2022-08-05T15:01:48.486Z,3.27
2022-08-05T15:04:20.680Z,2.40
2022-08-05T15:06:50.632Z,1.60
2022-08-05T15:09:51.495Z,1.63
2022-08-05T15:12:11.451Z,6.43
2022-08-05T15:14:49.439Z,3.10
2022-08-05T15:17:46.869Z,1.93
2022-08-05T15:20:17.007Z,1.93
2022-08-05T15:22:46.656Z,1.93
2022-08-05T15:25:23.602Z,5.50
2022-08-05T15:28:13.391Z,2.73
2022-08-05T15:30:43.379Z,5.30
2022-08-05T15:33:11.764Z,1.43
2022-08-05T15:35:45.181Z,2.07
2022-08-05T15:38:35.856Z,1.00
2022-08-05T15:41:22.962Z,1.77
2022-08-05T15:43:47.526Z,1.60
2022-08-05T15:46:14.569Z,1.10
2022-08-05T15:48:54.702Z,0.90
2022-08-05T15:52:13.444Z,1.50
2022-08-05T15:54:16.590Z,7.07
2022-08-05T15:56:43.766Z,1.00
2022-08-05T15:59:20.252Z,2.20
2022-08-05T16:01:52.233Z,3.47
2022-08-05T16:04:25.335Z,0.90
2022-08-05T16:06:55.499Z,0.90
2022-08-05T16:09:23.598Z,1.20
2022-08-05T16:11:53.771Z,2.03
2022-08-05T16:14:21.230Z,4.40
2022-08-05T16:16:50.068Z,4.20
2022-08-05T16:19:25.829Z,2.90
2022-08-05T16:22:04.848Z,1.00
2022-08-05T16:24:41.292Z,1.10
2022-08-05T16:27:18.444Z,4.40
2022-08-05T16:29:50.401Z,4.13
2022-08-05T16:32:28.691Z,3.60
2022-08-05T16:34:57.615Z,2.30
2022-08-05T16:38:16.827Z,1.27
2022-08-05T16:40:15.354Z,1.70
2022-08-05T16:42:53.440Z,1.00
2022-08-05T16:46:04.465Z,4.83
2022-08-05T16:48:07.331Z,1.20
2022-08-05T16:50:38.286Z,1.60
2022-08-05T16:53:12.019Z,1.23
2022-08-05T16:55:47.053Z,7.80
2022-08-05T16:58:14.512Z,1.53
2022-08-05T17:00:41.461Z,3.50
2022-08-05T17:03:20.370Z,2.33
2022-08-05T17:05:53.685Z,1.10
2022-08-05T17:08:33.479Z,1.20
2022-08-05T17:11:12.803Z,0.90
2022-08-05T17:13:44.431Z,1.50
2022-08-05T17:16:30.237Z,2.70
2022-08-05T17:18:59.602Z,2.60
2022-08-05T17:21:35.757Z,2.60
2022-08-05T17:24:18.520Z,0.90
2022-08-05T17:26:53.312Z,1.53
2022-08-05T17:29:22.734Z,1.03
2022-08-05T17:32:00.037Z,1.27
2022-08-05T17:34:29.941Z,1.10
2022-08-05T17:37:00.391Z,2.00
2022-08-05T17:39:34.117Z,5.40
2022-08-05T17:42:18.236Z,3.37
2022-08-05T17:44:50.387Z,2.10
2022-08-05T17:47:22.605Z,1.10
2022-08-05T17:50:04.281Z,0.97
2022-08-05T17:52:52.996Z,1.00
2022-08-05T17:55:22.790Z,1.43
2022-08-05T17:58:02.068Z,1.10
2022-08-05T18:00:30.191Z,2.63
2022-08-05T18:02:57.767Z,2.83
2022-08-05T18:05:28.236Z,1.00
2022-08-05T18:08:02.595Z,3.00
2022-08-05T18:10:33.430Z,1.90
2022-08-05T18:13:01.764Z,1.47
2022-08-05T18:15:31.219Z,2.57
2022-08-05T18:18:05.775Z,1.50
2022-08-05T18:20:38.245Z,1.37
2022-08-05T18:23:09.466Z,1.13
2022-08-05T18:25:44.923Z,2.03
2022-08-05T18:28:16.613Z,1.10
2022-08-05T18:30:51.069Z,0.93
2022-08-05T18:33:24.926Z,3.00
2022-08-05T18:36:03.187Z,1.17
2022-08-05T18:38:38.680Z,1.17
2022-08-05T18:41:57.878Z,1.10
2022-08-05T18:43:54.593Z,1.23
2022-08-05T18:46:21.545Z,1.30
2022-08-05T18:48:53.851Z,1.50
2022-08-05T18:52:05.456Z,1.00
2022-08-05T18:54:31.227Z,3.00
2022-08-05T18:57:00.993Z,1.00
2022-08-05T18:59:43.212Z,1.00
2022-08-05T19:02:26.786Z,0.97
2022-08-05T19:05:02.042Z,1.83
2022-08-05T19:07:45.150Z,1.13
2022-08-05T19:10:12.931Z,1.97
2022-08-05T19:12:40.603Z,1.73
2022-08-05T19:15:25.233Z,0.97
2022-08-05T19:18:10.236Z,1.47
2022-08-05T19:20:41.070Z,1.40
2022-08-05T19:24:05.996Z,1.53
2022-08-05T19:26:01.923Z,3.17
2022-08-05T19:28:30.985Z,10.90
2022-08-05T19:30:58.439Z,3.03
2022-08-05T19:33:35.846Z,1.37
2022-08-05T19:36:06.152Z,2.73
2022-08-05T19:38:35.661Z,1.93
2022-08-05T19:41:07.048Z,1.20
2022-08-05T19:44:06.164Z,1.40
2022-08-05T19:46:30.206Z,2.00
2022-08-05T19:49:03.545Z,2.60
2022-08-05T19:52:06.010Z,4.43
2022-08-05T19:54:31.170Z,1.10
2022-08-05T19:57:08.705Z,1.37
2022-08-05T19:59:59.352Z,1.30
2022-08-05T20:02:26.031Z,1.00
2022-08-05T20:04:54.827Z,1.37
2022-08-05T20:07:46.800Z,3.83
2022-08-05T20:10:13.217Z,1.10
2022-08-05T20:12:46.393Z,1.53
2022-08-05T20:15:23.354Z,3.73
2022-08-05T20:18:10.384Z,1.30
2022-08-05T20:20:51.794Z,2.17
2022-08-05T20:23:22.827Z,1.10
2022-08-05T20:25:52.093Z,2.10
2022-08-05T20:28:19.642Z,2.23
2022-08-05T20:30:47.904Z,3.73
2022-08-05T20:33:16.714Z,1.73
2022-08-05T20:35:45.510Z,3.90
2022-08-05T20:38:20.041Z,2.80
2022-08-05T20:40:56.282Z,1.20
2022-08-05T20:43:33.410Z,1.10
2022-08-05T20:46:12.435Z,1.53
2022-08-05T20:48:46.146Z,1.20
2022-08-05T20:51:18.231Z,3.80
2022-08-05T20:53:56.509Z,1.77
2022-08-05T20:56:28.197Z,2.80
2022-08-05T20:58:59.805Z,1.00
2022-08-05T21:01:37.320Z,1.13
2022-08-05T21:04:07.326Z,4.60
2022-08-05T21:06:38.409Z,1.40
2022-08-05T21:09:14.512Z,0.90
2022-08-05T21:12:07.186Z,1.10
2022-08-05T21:14:34.781Z,6.40
2022-08-05T21:17:05.416Z,1.50
2022-08-05T21:19:47.605Z,3.43
2022-08-05T21:22:18.515Z,5.27
2022-08-05T21:24:51.849Z,2.40
2022-08-05T21:27:25.189Z,1.13
2022-08-05T21:29:56.183Z,1.50
2022-08-05T21:32:28.089Z,6.27
2022-08-05T21:35:08.831Z,6.83
2022-08-05T21:37:53.042Z,1.93
2022-08-05T21:40:23.139Z,1.27
2022-08-05T21:42:51.852Z,2.27
2022-08-05T21:45:25.257Z,1.00
2022-08-05T21:48:08.367Z,7.50
2022-08-05T21:50:36.805Z,1.63
2022-08-05T21:53:16.381Z,1.10
2022-08-05T21:56:06.136Z,1.10
2022-08-05T21:58:32.547Z,6.90
2022-08-05T22:01:00.376Z,7.40
2022-08-05T22:03:52.752Z,2.47
2022-08-05T22:06:15.988Z,4.30
2022-08-05T22:08:51.807Z,3.03
2022-08-05T22:11:34.478Z,4.03
2022-08-05T22:14:34.342Z,1.10
2022-08-05T22:16:53.089Z,3.97
2022-08-05T22:20:00.917Z,4.13
2022-08-05T22:22:12.028Z,2.90
2022-08-05T22:24:57.660Z,3.10
2022-08-05T22:28:08.250Z,1.63
2022-08-05T22:30:32.437Z,1.43
2022-08-05T22:33:03.773Z,1.80
2022-08-05T22:35:49.159Z,4.27
2022-08-05T22:38:17.158Z,6.80
2022-08-05T22:40:49.933Z,2.80
2022-08-05T22:43:37.124Z,2.50
2022-08-05T22:46:13.660Z,3.87
2022-08-05T22:48:50.509Z,4.20
2022-08-05T22:51:22.657Z,1.27
2022-08-05T22:53:51.162Z,3.43
2022-08-05T22:56:29.835Z,2.50
2022-08-05T22:59:02.929Z,2.57
2022-08-05T23:02:05.004Z,1.20
2022-08-05T23:04:18.759Z,2.60
2022-08-05T23:06:47.879Z,4.00
2022-08-05T23:09:52.452Z,1.30
2022-08-05T23:12:02.201Z,2.90
2022-08-05T23:14:32.205Z,4.30
2022-08-05T23:17:24.610Z,1.47
2022-08-05T23:20:02.360Z,1.40
2022-08-05T23:22:30.987Z,2.60
2022-08-05T23:24:58.082Z,4.03
2022-08-05T23:27:31.484Z,1.80
2022-08-05T23:30:10.700Z,3.03
2022-08-05T23:32:40.674Z,2.30
2022-08-05T23:35:12.642Z,2.47
2022-08-05T23:37:39.865Z,4.60
2022-08-05T23:40:09.507Z,6.53
2022-08-05T23:42:38.075Z,6.00
2022-08-05T23:45:14.181Z,1.50
2022-08-05T23:47:47.734Z,4.27
2022-08-05T23:50:15.229Z,1.53
2022-08-05T23:52:49.835Z,5.40
2022-08-05T23:55:19.093Z,3.53
2022-08-05T23:57:48.742Z,5.70
